createdAt,value
2022-11-02T00:01:21.096Z,55.81
2022-11-02T00:03:48.533Z,56.10
2022-11-02T00:06:15.488Z,56.67
2022-11-02T00:08:42.269Z,55.29
2022-11-02T00:11:09.325Z,55.82
2022-11-02T00:13:36.129Z,55.99
2022-11-02T00:16:05.842Z,56.51
2022-11-02T00:18:34.887Z,56.70
2022-11-02T00:21:02.937Z,56.79
2022-11-02T00:23:30.563Z,57.44
2022-11-02T00:26:02.217Z,56.74
2022-11-02T00:28:29.944Z,56.31
2022-11-02T00:30:56.625Z,55.47
2022-11-02T00:33:23.441Z,55.11
2022-11-02T00:35:50.312Z,54.50
2022-11-02T00:38:17.053Z,53.97
2022-11-02T00:40:43.775Z,54.60
2022-11-02T00:43:10.514Z,54.87
2022-11-02T00:45:37.368Z,57.02
2022-11-02T00:48:04.897Z,55.59
2022-11-02T00:50:31.950Z,55.96
2022-11-02T00:52:58.614Z,56.25
2022-11-02T00:55:25.965Z,55.94
2022-11-02T00:57:52.753Z,56.46
2022-11-02T01:00:19.790Z,56.36
2022-11-02T01:02:46.680Z,56.79
2022-11-02T01:05:13.533Z,56.50
2022-11-02T01:07:40.283Z,56.10
2022-11-02T01:10:09.016Z,55.03
2022-11-02T01:12:40.317Z,55.05
2022-11-02T01:15:08.589Z,55.05
2022-11-02T01:17:35.408Z,54.30
2022-11-02T01:20:02.467Z,53.51
2022-11-02T01:22:29.197Z,53.78
2022-11-02T01:24:55.936Z,53.57
2022-11-02T01:27:22.983Z,53.23
2022-11-02T01:29:49.888Z,53.37
2022-11-02T01:32:16.563Z,53.21
2022-11-02T01:34:43.411Z,53.17
2022-11-02T01:37:10.426Z,53.52
2022-11-02T01:39:37.161Z,52.84
2022-11-02T01:42:04.140Z,53.04
2022-11-02T01:44:35.866Z,52.62
2022-11-02T01:47:05.615Z,52.47
2022-11-02T01:49:35.995Z,53.02
2022-11-02T01:52:21.341Z,52.88
2022-11-02T01:54:55.937Z,52.35
2022-11-02T01:57:23.188Z,52.56
2022-11-02T02:00:10.045Z,52.79
2022-11-02T02:03:00.235Z,52.86
2022-11-02T02:05:28.069Z,51.08
2022-11-02T02:07:55.920Z,51.25
2022-11-02T02:10:22.810Z,51.39
2022-11-02T02:12:50.069Z,50.97
2022-11-02T02:15:17.001Z,51.85
2022-11-02T02:18:16.756Z,51.10
2022-11-02T02:21:08.127Z,51.08
2022-11-02T02:23:54.958Z,50.72
2022-11-02T02:26:46.967Z,50.58
2022-11-02T02:29:24.716Z,50.74
2022-11-02T02:32:13.661Z,50.41
2022-11-02T02:34:56.397Z,51.02
2022-11-02T02:37:28.123Z,51.40
2022-11-02T02:40:05.382Z,51.84
2022-11-02T02:42:36.931Z,51.92
2022-11-02T02:45:25.282Z,52.08
2022-11-02T02:48:01.035Z,51.99
2022-11-02T02:50:34.157Z,52.13
2022-11-02T02:53:04.307Z,51.57
2022-11-02T02:55:36.930Z,53.53
2022-11-02T02:58:07.531Z,53.25
2022-11-02T03:00:35.627Z,53.81
2022-11-02T03:03:04.874Z,52.84
2022-11-02T03:05:35.032Z,52.54
2022-11-02T03:08:07.696Z,52.85
2022-11-02T03:10:53.659Z,52.91
2022-11-02T03:14:00.549Z,52.60
2022-11-02T03:16:42.955Z,52.44
2022-11-02T03:19:15.462Z,51.87
2022-11-02T03:21:45.035Z,52.49
2022-11-02T03:24:26.293Z,51.78
2022-11-02T03:27:23.499Z,51.95
2022-11-02T03:30:04.419Z,51.93
2022-11-02T03:33:06.504Z,52.64
2022-11-02T03:35:51.480Z,52.26
2022-11-02T03:38:24.277Z,52.68
2022-11-02T03:40:54.859Z,53.01
2022-11-02T03:43:23.018Z,53.18
2022-11-02T03:45:54.259Z,52.44
2022-11-02T03:48:24.208Z,53.75
2022-11-02T03:50:53.506Z,53.45
2022-11-02T03:53:28.132Z,52.85
2022-11-02T03:56:00.654Z,53.04
2022-11-02T03:58:27.448Z,53.31
2022-11-02T04:00:58.568Z,52.95
2022-11-02T04:03:25.309Z,52.95
2022-11-02T04:05:52.132Z,52.75
2022-11-02T04:08:33.094Z,52.53
2022-11-02T04:10:59.934Z,52.30
2022-11-02T04:13:26.655Z,52.59
2022-11-02T04:15:53.464Z,52.29
2022-11-02T04:18:20.256Z,51.73
2022-11-02T04:20:51.280Z,52.27
2022-11-02T04:23:19.320Z,52.19
2022-11-02T04:25:46.150Z,51.66
2022-11-02T04:28:12.877Z,51.36
2022-11-02T04:30:39.685Z,52.53
2022-11-02T04:33:06.531Z,52.93
2022-11-02T04:35:34.642Z,52.32
2022-11-02T04:38:02.161Z,51.48
2022-11-02T04:40:29.393Z,46.11
2022-11-02T04:42:56.159Z,45.97
2022-11-02T04:45:22.876Z,46.21
2022-11-02T04:47:49.780Z,47.51
2022-11-02T04:50:16.718Z,47.99
2022-11-02T04:52:43.525Z,47.89
2022-11-02T04:55:10.727Z,47.47
2022-11-02T04:57:37.551Z,47.41
2022-11-02T05:00:05.009Z,47.72
2022-11-02T05:02:31.926Z,47.38
2022-11-02T05:04:58.858Z,48.23
2022-11-02T05:07:25.580Z,47.87
2022-11-02T05:09:52.442Z,48.04
2022-11-02T05:12:19.263Z,47.97
2022-11-02T05:14:46.050Z,46.38
2022-11-02T05:17:12.851Z,46.26
2022-11-02T05:19:39.628Z,46.73
2022-11-02T05:22:06.319Z,47.12
2022-11-02T05:24:33.139Z,47.85
2022-11-02T05:26:59.938Z,48.79
2022-11-02T05:29:27.032Z,48.76
2022-11-02T05:31:53.851Z,50.00
2022-11-02T05:34:20.637Z,49.48
2022-11-02T05:36:50.555Z,49.63
2022-11-02T05:39:17.339Z,50.18
2022-11-02T05:41:44.222Z,49.81
2022-11-02T05:44:10.975Z,49.38
2022-11-02T05:46:37.781Z,50.20
2022-11-02T05:49:04.625Z,48.16
2022-11-02T05:51:31.409Z,49.06
2022-11-02T05:53:58.295Z,48.83
2022-11-02T05:56:25.430Z,48.83
2022-11-02T05:58:54.774Z,49.59
2022-11-02T06:01:21.785Z,48.80
2022-11-02T06:03:53.142Z,48.05
2022-11-02T06:06:20.655Z,47.47
2022-11-02T06:08:47.542Z,48.61
2022-11-02T06:11:15.056Z,48.04
2022-11-02T06:13:42.510Z,48.16
2022-11-02T06:16:12.120Z,49.02
2022-11-02T06:18:39.479Z,48.89
2022-11-02T06:21:06.800Z,49.21
2022-11-02T06:23:33.921Z,48.01
2022-11-02T06:26:02.137Z,48.05
2022-11-02T06:28:30.096Z,47.65
2022-11-02T06:30:57.727Z,47.25
2022-11-02T06:33:24.473Z,46.94
2022-11-02T06:35:53.466Z,48.34
2022-11-02T06:38:20.776Z,47.86
2022-11-02T06:40:59.071Z,48.30
2022-11-02T06:43:26.409Z,46.61
2022-11-02T06:45:59.515Z,47.09
2022-11-02T06:48:34.339Z,47.01
2022-11-02T06:51:03.107Z,46.42
2022-11-02T06:53:29.969Z,47.11
2022-11-02T06:56:01.337Z,47.03
2022-11-02T06:58:28.304Z,46.60
2022-11-02T07:01:02.907Z,46.75
2022-11-02T07:03:33.298Z,45.78
2022-11-02T07:06:00.731Z,46.14
2022-11-02T07:08:28.231Z,46.26
2022-11-02T07:10:55.522Z,45.80
2022-11-02T07:13:22.424Z,45.84
2022-11-02T07:15:52.242Z,45.10
2022-11-02T07:18:18.986Z,44.86
2022-11-02T07:20:46.775Z,44.57
2022-11-02T07:23:13.666Z,43.81
2022-11-02T07:25:40.508Z,44.08
2022-11-02T07:28:07.575Z,44.33
2022-11-02T07:30:35.186Z,44.42
2022-11-02T07:33:02.560Z,42.75
2022-11-02T07:35:29.862Z,42.73
2022-11-02T07:37:58.459Z,42.74
2022-11-02T07:40:25.677Z,42.74
2022-11-02T07:42:52.641Z,43.03
2022-11-02T07:45:20.554Z,42.85
2022-11-02T07:47:48.167Z,43.35
2022-11-02T07:50:17.993Z,43.42
2022-11-02T07:52:46.753Z,42.83
2022-11-02T07:55:14.826Z,43.28
2022-11-02T07:57:41.733Z,42.92
2022-11-02T08:00:09.135Z,42.42
2022-11-02T08:02:36.116Z,41.85
2022-11-02T08:05:03.017Z,42.20
2022-11-02T08:07:29.875Z,41.41
2022-11-02T08:09:56.714Z,41.58
2022-11-02T08:12:23.582Z,42.07
2022-11-02T08:14:50.521Z,42.01
2022-11-02T08:17:17.281Z,41.60
2022-11-02T08:19:44.031Z,41.74
2022-11-02T08:22:10.994Z,41.38
2022-11-02T08:24:37.744Z,41.79
2022-11-02T08:27:04.492Z,40.65
2022-11-02T08:29:31.734Z,40.84
2022-11-02T08:31:58.487Z,40.41
2022-11-02T08:34:25.265Z,39.92
2022-11-02T08:36:52.299Z,39.63
2022-11-02T08:39:19.324Z,40.55
2022-11-02T08:41:46.137Z,39.98
2022-11-02T08:44:13.052Z,39.98
2022-11-02T08:46:39.805Z,39.38
2022-11-02T08:49:06.534Z,39.36
2022-11-02T08:51:33.503Z,39.76
2022-11-02T08:54:00.401Z,39.45
2022-11-02T08:56:27.161Z,39.25
2022-11-02T08:58:53.972Z,38.84
2022-11-02T09:01:20.836Z,38.95
2022-11-02T09:03:47.560Z,38.64
2022-11-02T09:06:14.407Z,38.97
2022-11-02T09:08:41.231Z,38.16
2022-11-02T09:11:08.060Z,38.45
2022-11-02T09:13:35.436Z,38.68
2022-11-02T09:16:02.297Z,38.27
2022-11-02T09:18:29.108Z,37.90
2022-11-02T09:20:56.150Z,37.42
2022-11-02T09:23:23.722Z,36.89
2022-11-02T09:25:51.027Z,37.19
2022-11-02T09:28:18.235Z,36.58
2022-11-02T09:30:45.787Z,37.17
2022-11-02T09:33:13.034Z,37.07
2022-11-02T09:35:42.823Z,36.97
2022-11-02T09:38:09.649Z,36.44
2022-11-02T09:41:09.210Z,37.33
2022-11-02T09:44:02.881Z,36.98
2022-11-02T09:46:39.952Z,36.88
2022-11-02T09:49:14.542Z,36.31
2022-11-02T09:51:52.133Z,35.11
2022-11-02T09:54:18.817Z,36.05
2022-11-02T09:56:46.894Z,35.40
2022-11-02T09:59:20.093Z,35.62
2022-11-02T10:01:49.571Z,36.11
2022-11-02T10:04:44.079Z,35.69
2022-11-02T10:07:19.818Z,35.99
2022-11-02T10:09:58.770Z,35.51
2022-11-02T10:12:50.705Z,36.56
2022-11-02T10:16:06.940Z,36.38
2022-11-02T10:18:35.977Z,36.37
2022-11-02T10:21:09.475Z,35.46
2022-11-02T10:23:51.175Z,35.31
2022-11-02T10:26:29.673Z,35.53
2022-11-02T10:29:04.708Z,35.03
2022-11-02T10:31:33.912Z,35.64
2022-11-02T10:34:25.964Z,35.97
2022-11-02T10:37:20.182Z,35.70
2022-11-02T10:40:05.433Z,35.75
2022-11-02T10:42:52.911Z,35.46
2022-11-02T10:45:37.729Z,34.73
2022-11-02T10:48:32.394Z,35.59
2022-11-02T10:51:16.429Z,35.24
2022-11-02T10:53:48.116Z,35.27
2022-11-02T10:56:30.617Z,34.71
2022-11-02T10:59:00.434Z,34.84
2022-11-02T11:01:29.420Z,35.03
2022-11-02T11:04:01.047Z,35.41
2022-11-02T11:06:41.408Z,34.91
2022-11-02T11:09:26.100Z,34.77
2022-11-02T11:11:59.387Z,36.15
2022-11-02T11:20:38.227Z,34.96
2022-11-02T11:23:21.986Z,34.04
2022-11-02T11:26:00.708Z,34.54
2022-11-02T11:28:52.133Z,34.74
2022-11-02T11:31:19.587Z,34.65
2022-11-02T11:33:46.351Z,34.52
2022-11-02T11:36:23.211Z,34.75
2022-11-02T11:38:51.290Z,34.31
2022-11-02T11:41:18.532Z,33.88
2022-11-02T11:43:47.315Z,33.43
2022-11-02T11:46:16.332Z,34.20
2022-11-02T11:48:43.031Z,33.51
2022-11-02T11:51:28.466Z,33.59
2022-11-02T11:54:18.032Z,33.60
2022-11-02T11:56:45.371Z,33.27
2022-11-02T11:59:44.084Z,33.38
2022-11-02T12:02:40.948Z,33.75
2022-11-02T12:05:18.445Z,33.46
2022-11-02T12:08:33.955Z,33.58
2022-11-02T12:11:30.538Z,32.96
2022-11-02T12:14:29.799Z,33.91
2022-11-02T12:17:11.416Z,33.57
2022-11-02T12:20:05.222Z,33.89
2022-11-02T12:22:38.492Z,33.79
2022-11-02T12:25:32.588Z,34.10
2022-11-02T12:28:31.382Z,33.97
2022-11-02T12:31:03.833Z,33.81
2022-11-02T12:34:06.484Z,34.11
2022-11-02T12:37:35.444Z,33.59
2022-11-02T12:40:07.552Z,32.88
2022-11-02T12:42:57.695Z,32.60
2022-11-02T12:45:41.429Z,32.88
2022-11-02T12:48:09.686Z,32.65
2022-11-02T12:50:36.450Z,32.83
2022-11-02T12:53:37.874Z,32.16
2022-11-02T12:56:09.183Z,31.70
2022-11-02T12:58:39.168Z,31.72
2022-11-02T13:01:32.068Z,31.88
2022-11-02T13:04:04.781Z,31.83
2022-11-02T13:06:44.448Z,32.31
2022-11-02T13:09:19.389Z,32.46
2022-11-02T13:12:00.974Z,32.12
2022-11-02T13:14:34.769Z,32.21
2022-11-02T13:17:06.919Z,31.83
2022-11-02T13:19:40.816Z,31.41
2022-11-02T13:22:11.082Z,31.84
2022-11-02T13:24:47.939Z,31.79
2022-11-02T13:27:36.276Z,31.66
2022-11-02T13:30:14.177Z,31.63
2022-11-02T13:33:02.925Z,31.92
2022-11-02T13:35:35.316Z,31.99
2022-11-02T13:38:26.697Z,32.22
2022-11-02T13:41:28.762Z,32.51
2022-11-02T13:44:16.765Z,32.20
2022-11-02T13:46:58.567Z,32.75
2022-11-02T13:49:50.537Z,32.76
2022-11-02T13:52:27.262Z,32.58
2022-11-02T13:54:59.162Z,32.67
2022-11-02T13:57:36.976Z,32.57
2022-11-02T14:00:08.119Z,32.76
2022-11-02T14:02:41.594Z,32.68
2022-11-02T14:05:08.875Z,33.13
2022-11-02T14:07:40.462Z,33.14
2022-11-02T14:10:17.482Z,33.37
2022-11-02T14:12:49.237Z,33.25
2022-11-02T14:15:15.912Z,33.01
2022-11-02T14:17:54.764Z,33.08
2022-11-02T14:20:33.581Z,33.16
2022-11-02T14:23:09.576Z,33.21
2022-11-02T14:25:45.377Z,33.46
2022-11-02T14:28:21.274Z,33.58
2022-11-02T14:30:50.101Z,34.13
2022-11-02T14:33:39.572Z,33.77
2022-11-02T14:36:44.873Z,33.89
2022-11-02T14:40:02.529Z,34.59
2022-11-02T14:42:56.537Z,34.27
2022-11-02T14:45:46.818Z,34.87
2022-11-02T14:48:16.608Z,34.74
2022-11-02T14:51:04.326Z,34.97
2022-11-02T14:53:35.508Z,35.18
2022-11-02T14:56:02.853Z,34.79
2022-11-02T14:58:48.639Z,35.41
2022-11-02T15:01:15.738Z,35.29
2022-11-02T15:03:43.172Z,35.76
2022-11-02T15:06:20.178Z,36.04
2022-11-02T15:08:56.816Z,36.00
2022-11-02T15:11:49.939Z,35.83
2022-11-02T15:14:35.380Z,36.66
2022-11-02T15:17:22.695Z,36.73
2022-11-02T15:19:52.601Z,36.67
2022-11-02T15:22:31.485Z,37.09
2022-11-02T15:25:03.237Z,37.15
2022-11-02T15:27:30.725Z,37.58
2022-11-02T15:29:58.356Z,38.03
2022-11-02T15:32:28.841Z,37.70
2022-11-02T15:34:57.960Z,38.45
2022-11-02T15:37:27.228Z,38.34
2022-11-02T15:39:59.856Z,38.56
2022-11-02T15:42:42.959Z,39.29
2022-11-02T15:45:46.774Z,39.15
2022-11-02T15:48:29.083Z,39.38
2022-11-02T15:51:14.746Z,39.63
2022-11-02T15:53:47.352Z,39.67
2022-11-02T15:56:48.256Z,39.40
2022-11-02T16:00:07.960Z,39.58
2022-11-02T16:02:41.722Z,39.59
2022-11-02T16:05:18.138Z,39.84
2022-11-02T16:08:05.225Z,39.68
2022-11-02T16:10:34.188Z,39.84
2022-11-02T16:13:22.431Z,39.66
2022-11-02T16:16:01.976Z,39.58
2022-11-02T16:18:40.228Z,39.60
2022-11-02T16:21:11.476Z,39.64
2022-11-02T16:23:41.363Z,39.65
2022-11-02T16:26:16.500Z,39.58
2022-11-02T16:28:49.069Z,39.81
2022-11-02T16:31:28.476Z,39.52
2022-11-02T16:33:58.668Z,39.61
2022-11-02T16:36:45.856Z,39.70
2022-11-02T16:39:37.687Z,39.27
2022-11-02T16:42:15.400Z,39.95
2022-11-02T16:44:42.297Z,39.96
2022-11-02T16:47:09.093Z,39.87
2022-11-02T16:50:00.642Z,40.00
2022-11-02T16:52:35.147Z,40.41
2022-11-02T16:55:03.229Z,40.71
2022-11-02T16:57:44.166Z,40.25
2022-11-02T17:00:19.543Z,40.24
2022-11-02T17:02:47.362Z,40.43
2022-11-02T17:05:22.502Z,40.54
2022-11-02T17:08:22.923Z,40.65
2022-11-02T17:10:56.122Z,40.20
2022-11-02T17:13:25.868Z,40.36
2022-11-02T17:15:53.608Z,40.09
2022-11-02T17:18:23.559Z,39.77
2022-11-02T17:21:13.113Z,39.59
2022-11-02T17:23:42.829Z,39.26
2022-11-02T17:26:30.860Z,39.42
2022-11-02T17:29:26.680Z,39.17
2022-11-02T17:31:56.622Z,39.47
2022-11-02T17:34:23.551Z,39.54
2022-11-02T17:36:50.644Z,39.27
2022-11-02T17:39:19.884Z,39.41
2022-11-02T17:41:55.447Z,39.75
2022-11-02T17:44:22.383Z,39.41
2022-11-02T17:46:49.233Z,39.67
2022-11-02T17:49:16.097Z,39.17
2022-11-02T17:51:43.980Z,39.54
2022-11-02T17:54:14.872Z,39.59
2022-11-02T17:56:41.812Z,39.56
2022-11-02T17:59:09.504Z,39.59
2022-11-02T18:01:36.425Z,39.42
2022-11-02T18:04:03.343Z,39.47
2022-11-02T18:06:30.146Z,39.50
2022-11-02T18:08:58.552Z,39.66
2022-11-02T18:11:26.655Z,40.05
2022-11-02T18:13:53.764Z,39.66
2022-11-02T18:16:20.745Z,39.61
2022-11-02T18:18:47.731Z,39.89
2022-11-02T18:21:14.789Z,40.00
2022-11-02T18:23:43.156Z,39.65
2022-11-02T18:26:11.976Z,39.74
2022-11-02T18:28:39.273Z,39.86
2022-11-02T18:31:07.642Z,39.69
2022-11-02T18:33:34.623Z,39.53
2022-11-02T18:36:07.020Z,39.73
2022-11-02T18:38:33.780Z,39.54
2022-11-02T18:41:15.738Z,39.60
2022-11-02T18:43:44.901Z,39.54
2022-11-02T18:46:24.373Z,39.65
2022-11-02T18:48:54.944Z,39.60
2022-11-02T18:51:22.752Z,40.20
2022-11-02T18:54:08.268Z,39.89
2022-11-02T18:56:35.545Z,40.07
2022-11-02T18:59:02.269Z,40.52
2022-11-02T19:01:31.607Z,40.19
2022-11-02T19:04:00.269Z,39.76
2022-11-02T19:06:30.786Z,40.10
2022-11-02T19:08:58.207Z,39.99
2022-11-02T19:11:25.415Z,40.21
2022-11-02T19:13:53.079Z,40.11
2022-11-02T19:16:20.006Z,40.39
2022-11-02T19:18:47.655Z,40.33
2022-11-02T19:21:14.660Z,41.38
2022-11-02T19:23:41.453Z,40.56
2022-11-02T19:26:08.627Z,40.87
2022-11-02T19:28:35.432Z,40.63
2022-11-02T19:31:06.930Z,40.62
2022-11-02T19:33:34.299Z,40.10
2022-11-02T19:36:04.257Z,40.04
2022-11-02T19:38:36.494Z,40.50
2022-11-02T19:41:06.042Z,41.02
2022-11-02T19:43:32.950Z,41.57
2022-11-02T19:46:04.782Z,42.03
2022-11-02T19:48:32.635Z,40.92
2022-11-02T19:51:07.874Z,40.74
2022-11-02T19:53:37.477Z,41.00
2022-11-02T19:56:06.177Z,40.42
2022-11-02T19:58:33.209Z,41.32
2022-11-02T20:01:11.479Z,41.10
2022-11-02T20:03:41.722Z,40.55
2022-11-02T20:06:12.476Z,41.00
2022-11-02T20:08:41.266Z,40.82
2022-11-02T20:11:12.591Z,41.17
2022-11-02T20:13:42.233Z,41.02
2022-11-02T20:16:11.120Z,41.13
2022-11-02T20:18:39.630Z,41.15
2022-11-02T20:21:12.061Z,40.56
2022-11-02T20:23:39.294Z,41.96
2022-11-02T20:26:09.066Z,41.58
2022-11-02T20:28:41.400Z,41.88
2022-11-02T20:31:10.703Z,41.83
2022-11-02T20:33:39.163Z,42.30
2022-11-02T20:36:10.113Z,41.82
2022-11-02T20:38:37.372Z,42.40
2022-11-02T20:41:09.223Z,42.27
2022-11-02T20:43:37.621Z,42.29
2022-11-02T20:46:36.632Z,42.18
2022-11-02T20:49:13.907Z,42.21
2022-11-02T20:51:52.922Z,42.90
2022-11-02T20:54:20.904Z,43.72
2022-11-02T20:56:48.568Z,44.35
2022-11-02T20:59:15.733Z,43.14
2022-11-02T21:01:42.854Z,43.67
2022-11-02T21:04:11.034Z,43.81
2022-11-02T21:06:40.773Z,43.40
2022-11-02T21:09:12.094Z,43.06
2022-11-02T21:11:39.441Z,42.48
2022-11-02T21:14:06.307Z,43.23
2022-11-02T21:16:34.503Z,42.97
2022-11-02T21:19:01.395Z,42.77
2022-11-02T21:21:28.166Z,42.47
2022-11-02T21:23:55.919Z,42.27
2022-11-02T21:26:22.743Z,42.78
2022-11-02T21:28:50.631Z,42.16
2022-11-02T21:31:20.355Z,42.75
2022-11-02T21:33:49.162Z,43.57
2022-11-02T21:36:18.002Z,44.55
2022-11-02T21:38:45.378Z,43.78
2022-11-02T21:41:18.232Z,43.13
2022-11-02T21:43:45.007Z,43.24
2022-11-02T21:46:11.791Z,43.55
2022-11-02T21:48:39.041Z,42.71
2022-11-02T21:51:10.817Z,42.98
2022-11-02T21:53:40.145Z,44.07
2022-11-02T21:56:13.260Z,44.19
2022-11-02T21:58:44.777Z,43.64
2022-11-02T22:01:18.769Z,43.61
2022-11-02T22:03:46.564Z,43.53
2022-11-02T22:06:14.152Z,43.68
2022-11-02T22:08:41.588Z,44.41
2022-11-02T22:11:11.860Z,43.61
2022-11-02T22:13:40.253Z,44.44
2022-11-02T22:16:37.185Z,43.99
2022-11-02T22:19:06.659Z,44.06
2022-11-02T22:21:39.240Z,44.64
2022-11-02T22:24:06.958Z,43.87
2022-11-02T22:26:35.889Z,44.64
2022-11-02T22:29:04.221Z,46.21
2022-11-02T22:31:34.107Z,46.20
2022-11-02T22:34:02.877Z,45.33
2022-11-02T22:36:32.618Z,44.83
2022-11-02T22:39:01.196Z,44.28
2022-11-02T22:41:29.208Z,44.20
2022-11-02T22:44:03.375Z,44.68
2022-11-02T22:46:32.206Z,46.94
2022-11-02T22:48:59.889Z,46.95
2022-11-02T22:51:28.387Z,46.79
2022-11-02T22:53:55.812Z,46.30
2022-11-02T22:56:23.942Z,45.65
2022-11-02T22:58:50.893Z,45.69
2022-11-02T23:01:20.293Z,45.99
2022-11-02T23:03:48.406Z,46.20
2022-11-02T23:06:16.022Z,46.51
2022-11-02T23:08:44.789Z,47.52
2022-11-02T23:11:13.155Z,48.11
2022-11-02T23:13:40.638Z,46.49
2022-11-02T23:16:08.434Z,46.08
2022-11-02T23:18:35.166Z,47.65
2022-11-02T23:21:01.989Z,48.88
2022-11-02T23:23:28.854Z,47.62
2022-11-02T23:25:56.717Z,47.86
2022-11-02T23:30:55.991Z,46.99
2022-11-02T23:33:27.867Z,46.81
2022-11-02T23:35:54.712Z,49.83
2022-11-02T23:38:21.597Z,50.03
2022-11-02T23:40:48.451Z,51.68
2022-11-02T23:43:15.126Z,52.08
2022-11-02T23:45:41.851Z,50.72
2022-11-02T23:48:09.341Z,50.96
2022-11-02T23:50:36.656Z,50.32
2022-11-02T23:53:04.936Z,51.32
2022-11-02T23:55:31.868Z,51.28
2022-11-02T23:57:58.532Z,50.47
